Time;durP1;ratioP1;P1;durP2;ratioP2;P2;SDS_P1;SDS_P2;PMS_P1;PMS_P2;Temp;Humidity;BMP_temperature;BMP_pressure;BME280_temperature;BME280_humidity;BME280_pressure;Samples;Min_cycle;Max_cycle;Signal;HPM_P1;HPM_P2
2023/09/07 00:01:42;;;;;;;34.08;32.08;;;;;;;21.19;100.00;101645.78;4985975;28;20054;-76
2023/09/07 00:04:10;;;;;;;31.35;29.45;;;;;;;21.16;100.00;101653.59;4984973;28;20046;-75
2023/09/07 00:06:37;;;;;;;30.67;28.67;;;;;;;21.16;100.00;101643.59;4980362;28;20062;-76
2023/09/07 00:09:18;;;;;;;39.70;37.40;;;;;;;21.06;100.00;101643.50;4989458;28;20062;-76
2023/09/07 00:11:51;;;;;;;42.63;40.33;;;;;;;20.96;100.00;101638.78;4984891;28;20054;-76
2023/09/07 00:14:18;;;;;;;48.15;45.65;;;;;;;20.88;100.00;101646.50;4985698;28;20058;-75
2023/09/07 00:16:45;;;;;;;38.15;35.85;;;;;;;20.81;100.00;101644.81;4988351;28;20050;-76
2023/09/07 00:19:13;;;;;;;38.33;36.10;;;;;;;20.78;100.00;101650.72;4981768;28;20047;-76
2023/09/07 00:21:40;;;;;;;39.85;37.60;;;;;;;20.42;100.00;101645.91;4986615;28;20053;-76
2023/09/07 00:24:08;;;;;;;42.10;39.80;;;;;;;20.08;100.00;101651.34;4990569;28;20058;-76
2023/09/07 00:26:34;;;;;;;40.15;37.85;;;;;;;20.07;100.00;101650.53;4989458;28;20496;-76
2023/09/07 00:29:02;;;;;;;37.97;35.78;;;;;;;20.34;100.00;101645.28;4983846;28;20051;-76
2023/09/07 00:31:29;;;;;;;35.17;33.08;;;;;;;20.29;100.00;101641.69;4980680;28;20054;-76
2023/09/07 00:33:56;;;;;;;34.78;32.67;;;;;;;20.01;100.00;101642.63;4985834;28;20043;-76
2023/09/07 00:36:33;;;;;;;108.60;102.90;;;;;;;19.75;100.00;101631.44;4988718;28;20460;-76
2023/09/07 00:39:00;;;;;;;118.95;113.15;;;;;;;20.04;100.00;101634.84;4985312;28;20043;-76
2023/09/07 00:41:27;;;;;;;130.20;123.63;;;;;;;20.22;100.00;101638.34;4987588;28;20074;-75
2023/09/07 00:43:54;;;;;;;129.40;122.90;;;;;;;20.45;100.00;101632.72;4989418;28;20555;-75
2023/09/07 00:46:21;;;;;;;126.40;120.13;;;;;;;20.44;100.00;101641.88;4991998;28;20050;-76
2023/09/07 00:48:49;;;;;;;59.88;56.88;;;;;;;20.62;100.00;101638.09;4988969;28;20054;-75
2023/09/07 00:51:16;;;;;;;137.45;130.65;;;;;;;20.44;100.00;101635.69;4990097;28;20540;-75
2023/09/07 00:53:44;;;;;;;124.07;117.93;;;;;;;20.33;100.00;101635.56;4990966;28;20427;-76
2023/09/07 00:56:20;;;;;;;46.22;43.72;;;;;;;20.31;100.00;101636.88;4992950;28;20050;-76
2023/09/07 00:58:47;;;;;;;44.38;41.88;;;;;;;20.61;100.00;101630.28;4988425;28;20049;-76
2023/09/07 01:01:23;;;;;;;53.40;50.70;;;;;;;20.74;100.00;101617.19;4989973;28;20523;-75
2023/09/07 01:03:51;;;;;;;49.58;46.85;;;;;;;20.28;100.00;101634.66;4988965;28;20092;-76
2023/09/07 01:06:23;;;;;;;47.40;44.80;;;;;;;20.30;100.00;101629.81;4983177;28;20046;-76
2023/09/07 01:08:56;;;;;;;;;;;;;;;20.57;100.00;101638.03;4986813;28;20050;-76
2023/09/07 01:11:23;;;;;;;42.55;40.15;;;;;;;20.70;100.00;101634.16;4978418;28;19930;-75
2023/09/07 01:13:51;;;;;;;35.33;33.22;;;;;;;20.39;100.00;101628.31;4989352;28;20047;-76
2023/09/07 01:16:20;;;;;;;36.35;34.25;;;;;;;20.48;100.00;101629.53;4990317;28;20063;-76
2023/09/07 01:18:47;;;;;;;39.90;37.70;;;;;;;20.40;100.00;101629.16;4989261;28;20061;-75
2023/09/07 01:21:15;;;;;;;47.13;44.67;;;;;;;20.20;100.00;101630.50;4981366;28;20078;-75
2023/09/07 01:23:56;;;;;;;51.35;48.55;;;;;;;20.33;100.00;101624.75;4989399;28;20061;-75
2023/09/07 01:26:29;;;;;;;48.78;46.17;;;;;;;20.11;100.00;101626.59;4984716;28;20077;-76
2023/09/07 01:28:56;;;;;;;39.50;37.30;;;;;;;20.05;100.00;101628.38;4983308;28;20042;-75
2023/09/07 01:31:23;;;;;;;45.65;43.35;;;;;;;19.93;100.00;101633.06;4992928;28;20073;-76
2023/09/07 01:33:50;;;;;;;50.47;48.03;;;;;;;20.00;100.00;101624.78;4990611;28;20047;-76
2023/09/07 01:36:17;;;;;;;42.05;39.75;;;;;;;20.16;100.00;101623.16;4980144;28;20051;-76
2023/09/07 01:38:44;;;;;;;43.15;40.85;;;;;;;20.00;100.00;101624.78;4989833;28;20046;-76
2023/09/07 01:41:12;;;;;;;38.35;36.15;;;;;;;19.89;100.00;101629.22;4978802;28;20054;-76
2023/09/07 01:43:39;;;;;;;49.15;46.55;;;;;;;20.10;100.00;101627.66;4978667;28;20065;-76
2023/09/07 01:46:10;;;;;;;50.78;48.17;;;;;;;19.92;100.00;101622.53;4982325;28;20420;-76
2023/09/07 01:48:37;;;;;;;42.42;40.20;;;;;;;19.76;100.00;101632.25;4985616;28;20057;-76
2023/09/07 01:51:04;;;;;;;54.20;51.40;;;;;;;19.88;100.00;101616.81;4982798;28;20054;-75
2023/09/07 01:53:32;;;;;;;47.88;45.47;;;;;;;19.68;100.00;101625.41;4989474;28;20047;-76
2023/09/07 01:55:59;;;;;;;37.00;34.05;;;;;;;19.57;100.00;101626.25;4990386;28;20053;-76
2023/09/07 01:58:34;;;;;;;43.42;41.13;;;;;;;19.41;100.00;101625.16;4979663;28;20101;-76
2023/09/07 02:01:01;;;;;;;42.83;40.40;;;;;;;19.49;100.00;101632.06;4977609;28;20427;-76
2023/09/07 02:03:28;;;;;;;42.45;40.15;;;;;;;19.54;100.00;101630.25;4982325;28;20050;-76
2023/09/07 02:05:55;;;;;;;48.85;46.53;;;;;;;19.56;100.00;101635.41;4975891;28;20061;-76
2023/09/07 02:08:28;;;;;;;55.80;53.30;;;;;;;19.95;100.00;101628.25;4984392;28;20050;-76
2023/09/07 02:10:56;;;;;;;58.40;55.58;;;;;;;19.75;100.00;101638.69;4981353;28;20492;-76
2023/09/07 02:13:23;;;;;;;47.47;45.08;;;;;;;19.75;100.00;101644.09;4976849;28;20046;-76
2023/09/07 02:15:55;;;;;;;53.63;51.13;;;;;;;19.58;100.00;101636.78;4985232;28;20066;-76
2023/09/07 02:18:22;;;;;;;50.60;48.20;;;;;;;19.82;100.00;101640.19;4986548;28;20050;-76
2023/09/07 02:20:49;;;;;;;60.63;57.85;;;;;;;19.65;100.00;101633.97;4985867;28;20046;-75
2023/09/07 02:23:15;;;;;;;54.17;51.58;;;;;;;19.51;100.00;101638.81;4985191;28;20054;-76
2023/09/07 02:25:43;;;;;;;48.53;46.13;;;;;;;19.46;100.00;101633.34;4985853;28;20065;-76
2023/09/07 02:28:10;;;;;;;57.78;55.17;;;;;;;19.43;100.00;101641.91;4985369;28;20058;-76
2023/09/07 02:30:36;;;;;;;50.50;47.90;;;;;;;19.55;100.00;101637.28;4986847;28;20787;-76
2023/09/07 02:33:05;;;;;;;57.13;54.53;;;;;;;19.59;100.00;101629.53;4979979;28;20054;-76
2023/09/07 02:35:32;;;;;;;68.38;65.20;;;;;;;19.42;100.00;101627.59;4986996;28;20046;-75
2023/09/07 02:37:59;;;;;;;67.20;64.20;;;;;;;19.32;100.00;101629.31;4986112;28;20057;-76
2023/09/07 02:40:42;;;;;;;61.15;58.28;;;;;;;19.79;100.00;101635.28;4973222;28;20053;-76
2023/09/07 02:43:09;;;;;;;60.13;57.33;;;;;;;19.42;100.00;101622.22;4979072;28;20049;-76
2023/09/07 02:45:36;;;;;;;51.08;48.67;;;;;;;19.50;100.00;101631.78;4985802;28;20566;-76
2023/09/07 02:48:03;;;;;;;75.65;72.35;;;;;;;19.25;100.00;101631.34;4988701;28;20436;-75
2023/09/07 02:50:35;;;;;;;56.70;53.97;;;;;;;19.15;100.00;101627.41;4987712;28;20062;-75
2023/09/07 02:53:04;;;;;;;57.70;55.00;;;;;;;18.88;100.00;101631.72;4984323;28;20109;-75
2023/09/07 02:55:31;;;;;;;53.00;50.50;;;;;;;18.41;100.00;101634.50;4986068;28;20159;-75
2023/09/07 02:57:59;;;;;;;66.85;63.85;;;;;;;18.77;100.00;101630.72;4985297;28;20076;-75
2023/09/07 03:00:35;;;;;;;73.97;70.68;;;;;;;18.97;100.00;101632.97;4983613;28;20133;-75
2023/09/07 03:03:05;;;;;;;55.47;52.88;;;;;;;19.05;100.00;101635.28;4988133;28;20482;-75
2023/09/07 03:05:33;;;;;;;54.20;51.75;;;;;;;18.86;100.00;101629.28;4985694;28;20043;-75
2023/09/07 03:08:00;;;;;;;54.53;52.05;;;;;;;18.39;100.00;101628.53;4989837;28;20142;-76
2023/09/07 03:10:27;;;;;;;56.28;53.78;;;;;;;18.31;100.00;101638.59;4990559;28;20046;-75
2023/09/07 03:12:54;;;;;;;63.15;60.15;;;;;;;18.64;100.00;101637.16;4989386;28;20419;-75
2023/09/07 03:15:21;;;;;;;58.72;56.13;;;;;;;18.91;100.00;101648.22;4982978;28;20124;-76
2023/09/07 03:17:48;;;;;;;48.45;46.17;;;;;;;18.93;100.00;101640.72;4984799;28;20058;-76
2023/09/07 03:20:15;;;;;;;48.58;46.35;;;;;;;18.98;100.00;101650.78;4988588;28;20047;-75
2023/09/07 03:22:45;;;;;;;50.20;47.90;;;;;;;18.97;100.00;101655.34;4974716;28;20057;-76
2023/09/07 03:25:12;;;;;;;56.10;53.20;;;;;;;19.03;100.00;101653.53;4978649;28;20515;-76
2023/09/07 03:27:39;;;;;;;39.08;37.28;;;;;;;18.98;100.00;101656.97;4985386;28;20051;-76
2023/09/07 03:30:07;;;;;;;46.47;44.38;;;;;;;18.93;100.00;101666.81;4983756;28;20438;-77
2023/09/07 03:32:37;;;;;;;40.67;38.78;;;;;;;19.02;100.00;101660.00;4976490;28;20105;-76
2023/09/07 03:35:06;;;;;;;38.47;36.78;;;;;;;19.02;100.00;101657.31;4978454;28;20043;-76
2023/09/07 03:37:51;;;;;;;42.30;40.30;;;;;;;19.14;100.00;101668.84;4976458;28;20104;-76
2023/09/07 03:40:30;;;;;;;28.67;27.08;;;;;;;19.15;100.00;101672.34;4974204;28;20051;-76
2023/09/07 03:42:57;;;;;;;29.73;28.13;;;;;;;19.13;100.00;101678.00;4979480;28;20125;-75
2023/09/07 03:45:24;;;;;;;28.58;26.88;;;;;;;19.25;100.00;101682.53;4989181;28;20082;-76
2023/09/07 03:47:58;;;;;;;25.13;23.52;;;;;;;19.06;100.00;101688.06;4990553;28;20053;-76
2023/09/07 03:50:27;;;;;;;25.02;23.42;;;;;;;19.11;100.00;101690.06;4981447;28;20057;-76
2023/09/07 03:52:55;;;;;;;27.73;26.05;;;;;;;18.95;100.00;101689.75;4983189;28;20405;-76
2023/09/07 03:55:24;;;;;;;29.08;26.60;;;;;;;18.91;100.00;101699.38;4987567;28;20066;-76
2023/09/07 03:57:52;;;;;;;25.00;23.40;;;;;;;18.97;100.00;101698.41;4987027;28;20055;-76
2023/09/07 04:00:21;;;;;;;24.58;22.92;;;;;;;19.09;100.00;101703.78;4993045;28;20502;-76
2023/09/07 04:02:48;;;;;;;24.75;23.10;;;;;;;18.97;100.00;101701.09;4984162;28;20057;-76
2023/09/07 04:05:15;;;;;;;24.02;22.42;;;;;;;18.95;100.00;101700.50;4986607;28;20097;-76
2023/09/07 04:07:42;;;;;;;23.45;21.85;;;;;;;18.76;100.00;101705.25;4983239;28;20129;-76
2023/09/07 04:10:10;;;;;;;24.77;22.98;;;;;;;18.80;100.00;101700.19;4978108;28;20449;-76
2023/09/07 04:12:37;;;;;;;25.40;23.80;;;;;;;18.62;100.00;101703.00;4988062;28;21006;-76
2023/09/07 04:15:05;;;;;;;23.85;22.25;;;;;;;18.86;100.00;101701.94;4981473;28;20499;-76
2023/09/07 04:17:40;;;;;;;24.63;23.05;;;;;;;18.87;100.00;101702.75;4988068;28;20054;-77
2023/09/07 04:20:08;;;;;;;23.85;22.15;;;;;;;19.02;100.00;101703.06;4982402;28;20078;-76
2023/09/07 04:22:36;;;;;;;26.13;24.52;;;;;;;18.86;100.00;101707.31;4980882;28;20054;-76
2023/09/07 04:25:06;;;;;;;25.55;23.95;;;;;;;18.98;100.00;101696.53;4980446;28;20098;-76
2023/09/07 04:27:34;;;;;;;22.75;21.23;;;;;;;18.80;100.00;101712.84;4984318;28;20043;-76
2023/09/07 04:30:01;;;;;;;25.00;23.40;;;;;;;18.93;100.00;101705.31;4984898;28;20050;-76
2023/09/07 04:32:28;;;;;;;26.50;24.75;;;;;;;18.94;100.00;101701.59;4982162;28;20061;-76
2023/09/07 04:34:56;;;;;;;25.50;23.90;;;;;;;19.00;100.00;101705.16;4979257;28;20043;-77
2023/09/07 04:37:23;;;;;;;25.15;23.48;;;;;;;19.06;100.00;101715.00;4985331;28;20117;-76
2023/09/07 04:39:53;;;;;;;23.30;21.80;;;;;;;19.19;100.00;101716.63;4984883;28;20050;-76
2023/09/07 04:42:20;;;;;;;23.92;22.23;;;;;;;18.75;100.00;101714.34;4988808;28;20046;-76
2023/09/07 04:44:48;;;;;;;25.05;23.25;;;;;;;19.04;100.00;101717.13;4986045;28;20042;-76
2023/09/07 04:47:16;;;;;;;25.20;23.40;;;;;;;19.18;100.00;101718.50;4983976;28;20409;-76
2023/09/07 04:49:43;;;;;;;23.27;21.67;;;;;;;19.15;100.00;101708.19;4985998;28;20050;-76
2023/09/07 04:52:10;;;;;;;23.67;21.80;;;;;;;19.29;100.00;101716.00;4986676;28;20496;-77
2023/09/07 04:54:37;;;;;;;22.85;21.15;;;;;;;19.40;100.00;101725.91;4980938;28;20432;-77
2023/09/07 04:57:04;;;;;;;23.38;21.77;;;;;;;19.48;100.00;101724.69;4984406;28;20100;-76
2023/09/07 04:59:31;;;;;;;23.75;22.05;;;;;;;19.56;100.00;101725.13;4971206;28;20050;-76
2023/09/07 05:02:02;;;;;;;24.35;22.65;;;;;;;19.47;100.00;101725.75;4984279;28;20058;-76
2023/09/07 05:04:30;;;;;;;24.85;23.15;;;;;;;19.70;100.00;101724.84;4982991;28;20460;-76
2023/09/07 05:06:57;;;;;;;24.42;22.83;;;;;;;19.86;100.00;101726.78;4980737;28;20123;-77
2023/09/07 05:09:25;;;;;;;25.98;24.20;;;;;;;20.07;100.00;101733.31;4981110;28;20145;-76
2023/09/07 05:11:52;;;;;;;33.03;26.95;;;;;;;19.94;100.00;101730.94;4984861;28;20050;-76
2023/09/07 05:14:19;;;;;;;28.30;26.40;;;;;;;19.83;100.00;101728.06;4981878;28;20843;-76
2023/09/07 05:16:46;;;;;;;29.70;27.70;;;;;;;20.03;100.00;101727.59;4981897;28;20045;-76
2023/09/07 05:19:14;;;;;;;29.08;27.17;;;;;;;20.03;100.00;101729.47;4977978;28;20054;-76
2023/09/07 05:21:41;;;;;;;27.85;26.05;;;;;;;20.33;100.00;101739.91;4979446;28;20047;-76
2023/09/07 05:24:08;;;;;;;26.77;25.00;;;;;;;20.52;100.00;101735.13;4981666;28;20089;-76
2023/09/07 05:26:35;;;;;;;24.65;23.02;;;;;;;20.51;100.00;101728.88;4982527;28;20050;-76
2023/09/07 05:29:02;;;;;;;25.00;23.30;;;;;;;20.76;100.00;101735.75;4978304;28;20047;-76
2023/09/07 05:31:29;;;;;;;31.75;29.58;;;;;;;20.76;100.00;101733.84;4983140;28;20447;-76
2023/09/07 05:33:55;;;;;;;29.65;27.85;;;;;;;20.80;100.00;101739.56;4974246;28;20053;-76
2023/09/07 05:36:24;;;;;;;26.38;24.75;;;;;;;20.80;100.00;101743.06;4975947;28;20625;-75
2023/09/07 05:38:50;;;;;;;25.92;24.23;;;;;;;20.92;100.00;101740.25;4976368;28;20461;-76
2023/09/07 05:41:17;;;;;;;26.67;25.08;;;;;;;20.89;100.00;101748.88;4980637;28;20472;-75
2023/09/07 05:43:44;;;;;;;27.73;26.13;;;;;;;21.08;100.00;101751.25;4980991;28;20050;-76
2023/09/07 05:58:24;;;;;;;29.05;27.23;;;;;;;21.60;100.00;101743.50;4741731;27;10002012;-76
2023/09/07 06:00:51;;;;;;;29.00;27.20;;;;;;;21.39;100.00;101738.94;5070942;28;20049;-76
2023/09/07 06:03:18;;;;;;;26.67;25.08;;;;;;;21.61;100.00;101745.16;5068898;28;20494;-75
2023/09/07 06:05:46;;;;;;;29.15;27.35;;;;;;;21.88;100.00;101741.63;5070178;28;20044;-76
2023/09/07 06:08:13;;;;;;;27.02;25.13;;;;;;;22.44;100.00;101744.78;5073160;28;20492;-77
2023/09/07 06:10:52;;;;;;;27.60;25.70;;;;;;;22.18;100.00;101749.22;5073958;28;20478;-76
2023/09/07 06:13:18;;;;;;;28.75;26.65;;;;;;;22.48;100.00;101747.78;5074833;28;20071;-76
2023/09/07 06:15:48;;;;;;;29.27;27.27;;;;;;;22.44;100.00;101746.69;5073608;28;20045;-75
2023/09/07 06:18:15;;;;;;;27.42;25.52;;;;;;;22.56;100.00;101745.41;5077202;28;20044;-73
2023/09/07 06:20:42;;;;;;;28.90;26.80;;;;;;;22.78;100.00;101750.66;5070939;28;20041;-75
2023/09/07 06:23:09;;;;;;;28.75;26.65;;;;;;;22.42;100.00;101755.03;5072655;28;20048;-76
2023/09/07 06:25:35;;;;;;;29.08;27.00;;;;;;;22.33;100.00;101748.47;5079857;28;20433;-76
2023/09/07 06:28:02;;;;;;;30.48;28.48;;;;;;;23.58;100.00;101745.03;5079323;28;20059;-76
2023/09/07 06:30:29;;;;;;;26.98;25.17;;;;;;;23.48;100.00;101742.28;5068258;28;20476;-78
2023/09/07 06:32:57;;;;;;;31.48;29.58;;;;;;;24.08;100.00;101753.50;5081476;28;20236;-76
2023/09/07 06:35:24;;;;;;;30.50;28.60;;;;;;;23.80;100.00;101755.66;5075238;28;20051;-74
2023/09/07 06:37:51;;;;;;;30.45;28.65;;;;;;;23.92;100.00;101755.41;5069569;28;20048;-76
2023/09/07 06:40:19;;;;;;;30.02;28.27;;;;;;;23.37;100.00;101757.72;5078256;28;20049;-76
2023/09/07 06:42:46;;;;;;;33.03;30.83;;;;;;;23.71;100.00;101760.81;5070053;28;20064;-75
2023/09/07 06:45:12;;;;;;;29.15;27.15;;;;;;;23.82;100.00;101761.66;5066359;28;20084;-76
2023/09/07 06:47:39;;;;;;;26.75;24.85;;;;;;;23.34;100.00;101752.03;5062264;28;20044;-76
2023/09/07 06:50:08;;;;;;;26.52;24.73;;;;;;;23.67;100.00;101753.47;5068734;28;20425;-76
2023/09/07 06:52:35;;;;;;;25.30;23.50;;;;;;;23.95;100.00;101757.59;5076401;28;20751;-76
2023/09/07 06:55:02;;;;;;;25.05;23.15;;;;;;;23.77;100.00;101754.31;5074855;28;20053;-76
2023/09/07 06:57:29;;;;;;;24.98;23.08;;;;;;;24.15;100.00;101751.34;5070871;28;20061;-76
2023/09/07 06:59:56;;;;;;;25.55;23.55;;;;;;;24.58;100.00;101751.88;5061066;28;20056;-76
2023/09/07 07:02:25;;;;;;;25.13;23.13;;;;;;;24.07;100.00;101744.56;5063011;28;20056;-75
2023/09/07 07:04:52;;;;;;;24.95;23.05;;;;;;;24.40;100.00;101751.31;5061067;28;20044;-76
2023/09/07 07:07:20;;;;;;;25.25;23.27;;;;;;;24.13;100.00;101753.53;5057058;28;20049;-75
2023/09/07 07:09:47;;;;;;;24.05;22.15;;;;;;;24.55;100.00;101749.72;5063702;28;20067;-76
2023/09/07 07:12:14;;;;;;;24.85;22.75;;;;;;;24.28;100.00;101742.66;5055782;28;20060;-76
2023/09/07 07:14:41;;;;;;;24.45;22.45;;;;;;;24.32;100.00;101745.63;5058313;28;20045;-76
2023/09/07 07:17:08;;;;;;;23.40;21.45;;;;;;;24.93;100.00;101737.34;5058704;28;20047;-76
2023/09/07 07:19:35;;;;;;;24.33;22.35;;;;;;;24.97;100.00;101743.88;5055478;28;20053;-76
2023/09/07 07:22:02;;;;;;;24.73;22.73;;;;;;;24.81;100.00;101750.44;5058324;28;20182;-77
2023/09/07 07:24:31;;;;;;;24.75;22.85;;;;;;;24.84;100.00;101747.16;5064859;28;20040;-76
2023/09/07 07:26:57;;;;;;;25.08;23.17;;;;;;;25.06;100.00;101747.63;5063383;28;20048;-76
2023/09/07 07:29:24;;;;;;;26.90;24.42;;;;;;;25.00;100.00;101745.22;5065071;28;20063;-75
2023/09/07 07:31:51;;;;;;;24.88;22.77;;;;;;;24.89;100.00;101752.59;5058629;28;20041;-75
2023/09/07 07:34:18;;;;;;;24.38;22.42;;;;;;;25.32;100.00;101753.78;5055951;28;20048;-74
2023/09/07 07:36:45;;;;;;;24.17;22.27;;;;;;;25.77;100.00;101745.63;5060213;28;20048;-75
2023/09/07 07:39:12;;;;;;;23.92;22.05;;;;;;;26.10;100.00;101752.19;5056107;28;20564;-75
2023/09/07 07:41:40;;;;;;;24.27;22.38;;;;;;;26.19;100.00;101752.38;5058323;28;20135;-75
2023/09/07 07:44:08;;;;;;;24.10;22.20;;;;;;;26.07;100.00;101752.75;5065811;28;20103;-75
2023/09/07 07:46:35;;;;;;;23.90;21.75;;;;;;;26.32;100.00;101740.00;5060905;28;20056;-75
2023/09/07 07:49:02;;;;;;;23.75;21.88;;;;;;;26.10;100.00;101741.28;5057540;28;20064;-76
2023/09/07 07:51:29;;;;;;;24.30;22.40;;;;;;;26.25;100.00;101748.50;5057823;28;20537;-75
2023/09/07 07:53:56;;;;;;;23.20;21.40;;;;;;;25.70;100.00;101737.78;5062092;28;20537;-76
2023/09/07 07:56:24;;;;;;;23.27;21.42;;;;;;;25.61;100.00;101739.47;5063625;28;20052;-76
2023/09/07 07:58:52;;;;;;;24.30;22.40;;;;;;;25.47;100.00;101741.19;5061230;28;20460;-76
2023/09/07 08:01:21;;;;;;;23.45;21.65;;;;;;;25.82;100.00;101742.88;5060547;28;20056;-76
2023/09/07 08:03:48;;;;;;;23.95;22.05;;;;;;;26.23;100.00;101742.53;5061035;28;20426;-75
2023/09/07 08:06:15;;;;;;;24.05;22.05;;;;;;;26.25;100.00;101738.44;5061045;28;20076;-77
2023/09/07 08:08:42;;;;;;;25.33;23.33;;;;;;;26.18;100.00;101737.97;5058694;28;20508;-75
2023/09/07 08:11:09;;;;;;;23.70;21.90;;;;;;;26.43;98.88;101745.06;5062514;28;20131;-76
2023/09/07 08:13:36;;;;;;;24.98;23.08;;;;;;;26.71;97.89;101731.72;5060369;28;20052;-75
2023/09/07 08:16:06;;;;;;;24.63;22.40;;;;;;;26.19;100.00;101742.28;5062033;28;20429;-76
2023/09/07 08:18:36;;;;;;;23.42;21.63;;;;;;;26.82;100.00;101735.16;5062110;28;20445;-76
2023/09/07 08:21:03;;;;;;;24.98;22.98;;;;;;;26.53;98.33;101738.72;5055631;28;20509;-76
2023/09/07 08:23:31;;;;;;;24.85;22.85;;;;;;;27.10;93.75;101731.50;5064072;28;20054;-75
2023/09/07 08:25:58;;;;;;;25.20;23.30;;;;;;;26.76;96.21;101733.59;5053975;28;20048;-76
2023/09/07 08:28:25;;;;;;;24.13;22.17;;;;;;;26.99;99.43;101726.47;5057710;28;20048;-75
2023/09/07 08:30:54;;;;;;;25.75;23.95;;;;;;;27.63;96.96;101725.06;5066988;28;20114;-76
2023/09/07 08:33:28;;;;;;;27.45;25.60;;;;;;;27.22;100.00;101722.13;5059906;28;20057;-76
2023/09/07 08:35:56;;;;;;;27.10;25.30;;;;;;;27.78;98.01;101715.84;5066553;28;20519;-77
2023/09/07 08:38:27;;;;;;;28.50;26.60;;;;;;;28.12;93.18;101710.06;5062943;28;20494;-76
2023/09/07 08:40:55;;;;;;;27.30;25.40;;;;;;;28.21;90.27;101711.00;5062988;28;20076;-75
2023/09/07 08:43:23;;;;;;;26.65;24.75;;;;;;;27.94;87.53;101716.41;5063081;28;20133;-76
2023/09/07 08:45:59;;;;;;;27.58;25.38;;;;;;;27.48;100.00;101719.84;5064658;28;20101;-76
2023/09/07 08:48:30;;;;;;;26.48;24.27;;;;;;;27.52;100.00;101718.13;5051124;28;20045;-76
2023/09/07 08:50:57;;;;;;;25.23;23.33;;;;;;;27.98;94.42;101709.22;5064659;28;20048;-76
2023/09/07 08:53:25;;;;;;;25.23;23.30;;;;;;;28.38;96.24;101702.19;5061558;28;20052;-76
2023/09/07 08:55:52;;;;;;;25.25;23.35;;;;;;;28.31;99.20;101697.13;5062047;28;20048;-76
2023/09/07 08:58:19;;;;;;;24.58;22.88;;;;;;;28.67;98.70;101691.00;5061241;28;20051;-76
2023/09/07 09:00:46;;;;;;;24.60;22.90;;;;;;;28.43;97.98;101685.75;5058895;28;20449;-76
2023/09/07 09:03:13;;;;;;;27.10;25.13;;;;;;;29.37;85.54;101684.28;5056022;28;20049;-75
2023/09/07 09:05:42;;;;;;;31.23;28.45;;;;;;;28.39;95.75;101681.19;5059485;28;20049;-77
2023/09/07 09:08:08;;;;;;;27.63;25.73;;;;;;;28.70;100.00;101692.31;5059029;28;20098;-76
2023/09/07 09:10:35;;;;;;;28.25;26.25;;;;;;;28.76;84.63;101686.44;5058354;28;20169;-77
2023/09/07 09:13:02;;;;;;;27.48;25.48;;;;;;;28.45;100.00;101689.00;5061675;28;20137;-76
2023/09/07 09:15:29;;;;;;;26.00;24.10;;;;;;;28.63;99.27;101687.28;5065332;28;20510;-76
2023/09/07 09:17:56;;;;;;;26.27;24.30;;;;;;;29.31;68.63;101679.25;5061562;28;20520;-77
2023/09/07 09:20:25;;;;;;;27.10;25.00;;;;;;;29.02;73.57;101675.00;5056865;28;20045;-76
2023/09/07 09:22:56;;;;;;;26.65;24.75;;;;;;;29.15;88.75;101668.66;5061252;28;20052;-76
2023/09/07 09:25:23;;;;;;;27.27;25.30;;;;;;;29.24;78.40;101670.69;5058708;28;20051;-77
2023/09/07 09:27:50;;;;;;;27.05;25.05;;;;;;;29.54;64.18;101658.19;5060090;28;20040;-77
2023/09/07 09:30:16;;;;;;;27.23;25.23;;;;;;;29.82;72.16;101658.88;5051705;28;20471;-77
2023/09/07 09:32:44;;;;;;;31.55;28.85;;;;;;;29.76;70.38;101651.91;5060321;28;20450;-76
2023/09/07 09:35:11;;;;;;;28.60;26.50;;;;;;;29.79;73.19;101656.75;5061186;28;20063;-76
2023/09/07 09:37:46;;;;;;;25.20;23.40;;;;;;;30.30;71.22;101656.22;5060308;28;20072;-76
2023/09/07 09:40:16;;;;;;;28.73;26.70;;;;;;;30.42;77.97;101660.28;5045636;28;20096;-76
2023/09/07 09:42:44;;;;;;;29.48;27.17;;;;;;;29.49;79.69;101655.56;5058007;28;20083;-77
2023/09/07 09:45:12;;;;;;;27.52;25.42;;;;;;;30.23;64.51;101650.41;5052661;28;20430;-77
2023/09/07 09:47:41;;;;;;;30.13;27.92;;;;;;;30.34;60.97;101648.16;5050720;28;20128;-76
2023/09/07 09:50:10;;;;;;;28.05;25.80;;;;;;;31.02;52.79;101643.16;5057223;28;20186;-77
2023/09/07 09:52:37;;;;;;;29.63;27.52;;;;;;;30.76;66.91;101651.34;5055073;28;20072;-76
2023/09/07 09:55:08;;;;;;;33.20;30.90;;;;;;;30.32;67.95;101647.69;5059056;28;20136;-76
2023/09/07 09:57:40;;;;;;;34.20;31.70;;;;;;;30.98;54.48;101637.50;5052463;28;20522;-76
2023/09/07 10:00:25;;;;;;;28.00;26.00;;;;;;;31.00;56.10;101640.72;5059320;28;20135;-77
2023/09/07 10:02:59;;;;;;;28.33;26.33;;;;;;;30.40;66.03;101649.63;5051354;28;20118;-77
2023/09/07 10:05:27;;;;;;;27.38;25.38;;;;;;;30.66;53.85;101640.69;5048254;28;20578;-78
2023/09/07 10:07:55;;;;;;;28.65;26.55;;;;;;;30.92;52.40;101636.03;5057926;28;20040;-77
2023/09/07 10:10:22;;;;;;;24.95;23.15;;;;;;;30.74;53.30;101642.59;5062351;28;20516;-77
2023/09/07 10:12:54;;;;;;;28.40;26.40;;;;;;;30.41;52.96;101637.56;5061039;28;20045;-77
2023/09/07 10:15:22;;;;;;;28.60;26.70;;;;;;;30.21;54.92;101636.19;5059849;28;20101;-77
2023/09/07 10:17:52;;;;;;;28.20;26.23;;;;;;;30.68;55.27;101630.19;5058514;28;20059;-77
2023/09/07 10:20:22;;;;;;;28.35;26.30;;;;;;;30.95;50.68;101631.84;5055897;28;20437;-77
2023/09/07 10:22:49;;;;;;;25.02;23.13;;;;;;;30.42;51.37;101638.38;5056108;28;20433;-76
2023/09/07 10:25:21;;;;;;;26.38;24.23;;;;;;;31.12;52.52;101628.31;5060535;28;20067;-76
2023/09/07 10:27:48;;;;;;;25.25;23.25;;;;;;;30.88;64.19;101612.34;5058530;28;20429;-76
2023/09/07 10:30:19;;;;;;;25.92;23.92;;;;;;;30.65;51.31;101625.34;5058434;28;20502;-76
2023/09/07 10:32:47;;;;;;;26.08;23.98;;;;;;;30.87;50.42;101616.22;5058577;28;20054;-76
2023/09/07 10:37:45;;;;;;;27.25;25.25;;;;;;;31.09;61.54;101599.59;5019615;28;20119;-76
2023/09/07 10:40:15;;;;;;;26.75;24.75;;;;;;;30.48;60.64;101599.53;5024441;28;20060;-76
2023/09/07 10:42:42;;;;;;;26.17;24.08;;;;;;;30.58;70.55;101584.69;5019020;28;20148;-76
2023/09/07 10:45:12;;;;;;;27.92;25.85;;;;;;;30.22;68.72;101604.13;5022503;28;20050;-76
2023/09/07 10:47:43;;;;;;;25.98;24.10;;;;;;;31.07;56.32;101584.59;5025891;28;20785;-76
2023/09/07 10:50:12;;;;;;;27.95;25.67;;;;;;;32.06;46.67;101590.81;5026475;28;20127;-76
2023/09/07 10:52:40;;;;;;;24.58;22.88;;;;;;;31.07;54.40;101592.81;5023056;28;20056;-76
2023/09/07 10:55:10;;;;;;;23.98;22.38;;;;;;;31.07;49.30;101587.31;5021479;28;20107;-76
2023/09/07 10:57:43;;;;;;;24.33;22.63;;;;;;;30.66;60.54;101583.13;5021505;28;20055;-76
2023/09/07 11:00:11;;;;;;;25.92;24.13;;;;;;;30.48;70.95;101576.81;5019902;28;20103;-76
2023/09/07 11:02:38;;;;;;;26.42;24.52;;;;;;;30.81;59.08;101566.22;5021790;28;20512;-76
2023/09/07 11:05:07;;;;;;;24.63;22.83;;;;;;;30.45;53.68;101571.97;5025499;28;20080;-75
2023/09/07 11:07:35;;;;;;;27.08;25.08;;;;;;;30.23;69.87;101581.09;5018995;28;20038;-76
2023/09/07 11:10:04;;;;;;;24.73;22.92;;;;;;;30.91;51.90;101567.81;5022708;28;20057;-76
2023/09/07 11:12:37;;;;;;;27.30;25.48;;;;;;;31.74;46.79;101556.50;5017270;28;20049;-76
2023/09/07 11:15:05;;;;;;;27.92;25.92;;;;;;;32.29;47.43;101555.63;5016854;28;20172;-77
2023/09/07 11:17:32;;;;;;;28.23;26.13;;;;;;;32.04;56.48;101551.88;5030929;28;20049;-76
2023/09/07 11:19:59;;;;;;;29.08;26.98;;;;;;;30.67;66.89;101562.78;5018830;28;20064;-77
2023/09/07 11:22:27;;;;;;;26.90;24.90;;;;;;;31.11;54.76;101550.72;5024471;28;20049;-76
2023/09/07 11:24:54;;;;;;;26.75;24.85;;;;;;;32.76;45.98;101544.44;5026310;28;20422;-76